sensor_id;sensor_type;location;lat;lon;timestamp;pressure;altitude;pressure_sealevel;temperature;humidity
46718;BME280;32448;44.960;-0.698;2023-03-23T00:01:15;100916.50;;;11.40;100.00
46718;BME280;32448;44.960;-0.698;2023-03-23T00:03:47;100919.00;;;11.32;100.00
46718;BME280;32448;44.960;-0.698;2023-03-23T00:06:13;100890.81;;;11.16;100.00
46718;BME280;32448;44.960;-0.698;2023-03-23T00:08:47;100923.38;;;11.33;100.00
46718;BME280;32448;44.960;-0.698;2023-03-23T00:11:17;100908.53;;;11.32;100.00
46718;BME280;32448;44.960;-0.698;2023-03-23T00:13:49;100915.56;;;11.35;100.00
46718;BME280;32448;44.960;-0.698;2023-03-23T00:16:21;100890.97;;;11.23;100.00
46718;BME280;32448;44.960;-0.698;2023-03-23T00:18:55;100894.31;;;11.16;100.00
46718;BME280;32448;44.960;-0.698;2023-03-23T00:21:23;100911.91;;;11.25;100.00
46718;BME280;32448;44.960;-0.698;2023-03-23T00:24:10;100914.56;;;11.28;100.00
46718;BME280;32448;44.960;-0.698;2023-03-23T00:26:38;100905.91;;;11.32;100.00
46718;BME280;32448;44.960;-0.698;2023-03-23T00:29:16;100909.44;;;11.34;100.00
46718;BME280;32448;44.960;-0.698;2023-03-23T00:31:45;100891.84;;;11.24;100.00
46718;BME280;32448;44.960;-0.698;2023-03-23T00:34:18;100912.09;;;11.36;100.00
46718;BME280;32448;44.960;-0.698;2023-03-23T00:36:53;100913.00;;;11.38;100.00
46718;BME280;32448;44.960;-0.698;2023-03-23T00:39:23;100919.88;;;11.32;100.00
46718;BME280;32448;44.960;-0.698;2023-03-23T00:41:51;100907.72;;;11.35;100.00
46718;BME280;32448;44.960;-0.698;2023-03-23T00:44:17;100885.69;;;11.22;100.00
46718;BME280;32448;44.960;-0.698;2023-03-23T00:46:47;100912.09;;;11.36;100.00
46718;BME280;32448;44.960;-0.698;2023-03-23T00:49:17;100892.78;;;11.29;100.00
46718;BME280;32448;44.960;-0.698;2023-03-23T00:51:43;100891.97;;;11.33;100.00
46718;BME280;32448;44.960;-0.698;2023-03-23T00:54:10;100903.34;;;11.34;100.00
46718;BME280;32448;44.960;-0.698;2023-03-23T00:56:37;100891.03;;;11.26;100.00
46718;BME280;32448;44.960;-0.698;2023-03-23T00:59:05;100905.91;;;11.32;100.00
46718;BME280;32448;44.960;-0.698;2023-03-23T01:01:32;100894.50;;;11.25;100.00
46718;BME280;32448;44.960;-0.698;2023-03-23T01:03:59;100896.31;;;11.31;100.00
46718;BME280;32448;44.960;-0.698;2023-03-23T01:06:31;100895.44;;;11.30;100.00
46718;BME280;32448;44.960;-0.698;2023-03-23T01:09:37;100894.53;;;11.30;100.00
46718;BME280;32448;44.960;-0.698;2023-03-23T01:12:06;100895.41;;;11.29;100.00
46718;BME280;32448;44.960;-0.698;2023-03-23T01:14:32;100877.84;;;11.22;100.00
46718;BME280;32448;44.960;-0.698;2023-03-23T01:16:58;100883.13;;;11.25;100.00
46718;BME280;32448;44.960;-0.698;2023-03-23T01:19:24;100871.81;;;11.26;100.00
46718;BME280;32448;44.960;-0.698;2023-03-23T01:21:50;100877.91;;;11.25;100.00
46718;BME280;32448;44.960;-0.698;2023-03-23T01:24:31;100875.31;;;11.26;100.00
46718;BME280;32448;44.960;-0.698;2023-03-23T01:27:34;100862.25;;;11.26;100.00
46718;BME280;32448;44.960;-0.698;2023-03-23T01:30:01;100859.56;;;11.23;100.00
46718;BME280;32448;44.960;-0.698;2023-03-23T01:32:29;100849.16;;;11.28;100.00
46718;BME280;32448;44.960;-0.698;2023-03-23T01:35:53;100852.66;;;11.28;100.00
46718;BME280;32448;44.960;-0.698;2023-03-23T01:39:19;100844.78;;;11.28;100.00
46718;BME280;32448;44.960;-0.698;2023-03-23T01:41:45;100843.91;;;11.25;100.00
46718;BME280;32448;44.960;-0.698;2023-03-23T01:51:51;100853.34;;;11.17;100.00
46718;BME280;32448;44.960;-0.698;2023-03-23T01:54:20;100852.47;;;11.18;100.00
46718;BME280;32448;44.960;-0.698;2023-03-23T01:57:41;100849.91;;;11.19;100.00
46718;BME280;32448;44.960;-0.698;2023-03-23T02:04:14;100854.28;;;11.20;100.00
46718;BME280;32448;44.960;-0.698;2023-03-23T02:06:43;100856.00;;;11.20;100.00
46718;BME280;32448;44.960;-0.698;2023-03-23T02:09:18;100849.00;;;11.19;100.00
46718;BME280;32448;44.960;-0.698;2023-03-23T02:16:16;100842.03;;;11.18;100.00
46718;BME280;32448;44.960;-0.698;2023-03-23T02:18:57;100839.44;;;11.19;100.00
46718;BME280;32448;44.960;-0.698;2023-03-23T02:28:56;100851.69;;;11.22;100.00
46718;BME280;32448;44.960;-0.698;2023-03-23T02:34:13;100853.34;;;11.17;100.00
46718;BME280;32448;44.960;-0.698;2023-03-23T02:42:18;100855.03;;;11.13;100.00
46718;BME280;32448;44.960;-0.698;2023-03-23T02:44:48;100854.13;;;11.11;100.00
46718;BME280;32448;44.960;-0.698;2023-03-23T02:47:22;100830.44;;;11.01;100.00
46718;BME280;32448;44.960;-0.698;2023-03-23T02:54:18;100834.91;;;11.09;100.00
46718;BME280;32448;44.960;-0.698;2023-03-23T02:58:10;100828.84;;;11.10;100.00
46718;BME280;32448;44.960;-0.698;2023-03-23T03:00:49;100839.25;;;11.07;100.00
46718;BME280;32448;44.960;-0.698;2023-03-23T03:10:50;100825.06;;;10.94;100.00
46718;BME280;32448;44.960;-0.698;2023-03-23T03:13:42;100847.09;;;11.09;100.00
46718;BME280;32448;44.960;-0.698;2023-03-23T03:16:33;100840.19;;;11.11;100.00
46718;BME280;32448;44.960;-0.698;2023-03-23T03:21:58;100824.38;;;11.05;100.00
46718;BME280;32448;44.960;-0.698;2023-03-23T03:24:40;100827.00;;;11.06;100.00
46718;BME280;32448;44.960;-0.698;2023-03-23T03:27:13;100817.41;;;11.05;100.00
46718;BME280;32448;44.960;-0.698;2023-03-23T03:29:54;100812.19;;;11.07;100.00
46718;BME280;32448;44.960;-0.698;2023-03-23T03:32:45;100812.16;;;11.02;100.00
46718;BME280;32448;44.960;-0.698;2023-03-23T03:36:18;100821.78;;;11.06;100.00
46718;BME280;32448;44.960;-0.698;2023-03-23T03:40:03;100810.38;;;11.01;100.00
46718;BME280;32448;44.960;-0.698;2023-03-23T03:47:57;100816.53;;;11.06;100.00
46718;BME280;32448;44.960;-0.698;2023-03-23T03:50:38;100806.81;;;10.96;100.00
46718;BME280;32448;44.960;-0.698;2023-03-23T03:53:05;100812.06;;;10.98;100.00
46718;BME280;32448;44.960;-0.698;2023-03-23T03:55:32;100798.91;;;10.91;100.00
46718;BME280;32448;44.960;-0.698;2023-03-23T03:58:04;100821.59;;;10.95;100.00
46718;BME280;32448;44.960;-0.698;2023-03-23T04:00:49;100805.78;;;10.86;100.00
46718;BME280;32448;44.960;-0.698;2023-03-23T04:03:20;100804.97;;;10.90;100.00
46718;BME280;32448;44.960;-0.698;2023-03-23T04:06:03;100811.16;;;10.95;100.00
46718;BME280;32448;44.960;-0.698;2023-03-23T04:08:30;100810.25;;;10.92;100.00
46718;BME280;32448;44.960;-0.698;2023-03-23T04:10:58;100801.50;;;10.90;100.00
46718;BME280;32448;44.960;-0.698;2023-03-23T04:13:25;100779.72;;;10.91;100.00
46718;BME280;32448;44.960;-0.698;2023-03-23T04:16:00;100772.75;;;10.91;100.00
46718;BME280;32448;44.960;-0.698;2023-03-23T04:18:27;100765.69;;;10.87;100.00
46718;BME280;32448;44.960;-0.698;2023-03-23T04:20:55;100776.97;;;10.85;100.00
46718;BME280;32448;44.960;-0.698;2023-03-23T04:23:27;100796.19;;;10.87;100.00
46718;BME280;32448;44.960;-0.698;2023-03-23T04:25:53;100791.84;;;10.87;100.00
46718;BME280;32448;44.960;-0.698;2023-03-23T04:28:25;100792.72;;;10.88;100.00
46718;BME280;32448;44.960;-0.698;2023-03-23T04:31:14;100786.56;;;10.84;100.00
46718;BME280;32448;44.960;-0.698;2023-03-23T04:33:47;100776.84;;;10.76;100.00
46718;BME280;32448;44.960;-0.698;2023-03-23T04:36:14;100796.19;;;10.87;100.00
46718;BME280;32448;44.960;-0.698;2023-03-23T04:38:51;100804.00;;;10.85;100.00
46718;BME280;32448;44.960;-0.698;2023-03-23T04:41:23;100810.06;;;10.83;100.00
46718;BME280;32448;44.960;-0.698;2023-03-23T04:44:00;100817.88;;;10.80;100.00
46718;BME280;32448;44.960;-0.698;2023-03-23T04:46:54;100817.69;;;10.69;100.00
46718;BME280;32448;44.960;-0.698;2023-03-23T04:49:21;100834.28;;;10.73;100.00
46718;BME280;32448;44.960;-0.698;2023-03-23T04:51:53;100829.06;;;10.73;100.00
46718;BME280;32448;44.960;-0.698;2023-03-23T04:54:38;100820.19;;;10.63;100.00
46718;BME280;32448;44.960;-0.698;2023-03-23T04:57:04;100836.84;;;10.68;100.00
46718;BME280;32448;44.960;-0.698;2023-03-23T04:59:32;100838.53;;;10.65;100.00
46718;BME280;32448;44.960;-0.698;2023-03-23T05:02:32;100847.25;;;10.65;100.00
46718;BME280;32448;44.960;-0.698;2023-03-23T05:05:08;100844.59;;;10.64;100.00
46718;BME280;32448;44.960;-0.698;2023-03-23T05:07:37;100838.47;;;10.62;100.00
46718;BME280;32448;44.960;-0.698;2023-03-23T05:10:08;100804.16;;;10.43;100.00
46718;BME280;32448;44.960;-0.698;2023-03-23T05:12:36;100839.31;;;10.61;100.00
46718;BME280;32448;44.960;-0.698;2023-03-23T05:15:06;100834.91;;;10.56;100.00
46718;BME280;32448;44.960;-0.698;2023-03-23T05:17:34;100826.13;;;10.53;100.00
46718;BME280;32448;44.960;-0.698;2023-03-23T05:20:11;100841.81;;;10.54;100.00
46718;BME280;32448;44.960;-0.698;2023-03-23T05:22:42;100844.38;;;10.51;100.00
46718;BME280;32448;44.960;-0.698;2023-03-23T05:25:12;100846.03;;;10.46;100.00
46718;BME280;32448;44.960;-0.698;2023-03-23T05:27:42;100842.41;;;10.40;100.00
46718;BME280;32448;44.960;-0.698;2023-03-23T05:30:22;100846.94;;;10.47;100.00
46718;BME280;32448;44.960;-0.698;2023-03-23T05:32:49;100839.00;;;10.42;100.00
46718;BME280;32448;44.960;-0.698;2023-03-23T05:35:38;100834.59;;;10.41;100.00
46718;BME280;32448;44.960;-0.698;2023-03-23T05:38:05;100818.84;;;10.35;100.00
46718;BME280;32448;44.960;-0.698;2023-03-23T05:40:31;100821.50;;;10.38;100.00
46718;BME280;32448;44.960;-0.698;2023-03-23T05:43:11;100826.59;;;10.32;100.00
46718;BME280;32448;44.960;-0.698;2023-03-23T05:45:57;100840.66;;;10.39;100.00
46718;BME280;32448;44.960;-0.698;2023-03-23T05:48:24;100829.22;;;10.32;100.00
46718;BME280;32448;44.960;-0.698;2023-03-23T05:50:50;100838.03;;;10.39;100.00
46718;BME280;32448;44.960;-0.698;2023-03-23T05:53:20;100832.69;;;10.31;100.00
46718;BME280;32448;44.960;-0.698;2023-03-23T05:55:47;100842.28;;;10.32;100.00
46718;BME280;32448;44.960;-0.698;2023-03-23T05:58:28;100840.41;;;10.25;100.00
46718;BME280;32448;44.960;-0.698;2023-03-23T06:00:54;100834.34;;;10.28;100.00
46718;BME280;32448;44.960;-0.698;2023-03-23T06:03:26;100857.88;;;10.29;100.00
46718;BME280;32448;44.960;-0.698;2023-03-23T06:05:59;100856.91;;;10.23;100.00
46718;BME280;32448;44.960;-0.698;2023-03-23T06:08:34;100850.72;;;10.19;100.00
46718;BME280;32448;44.960;-0.698;2023-03-23T06:11:04;100870.03;;;10.26;100.00
46718;BME280;32448;44.960;-0.698;2023-03-23T06:13:34;100863.81;;;10.20;100.00
46718;BME280;32448;44.960;-0.698;2023-03-23T06:16:06;100882.25;;;10.27;100.00
46718;BME280;32448;44.960;-0.698;2023-03-23T06:18:47;100897.94;;;10.28;100.00
46718;BME280;32448;44.960;-0.698;2023-03-23T06:21:36;100881.28;;;10.23;100.00
46718;BME280;32448;44.960;-0.698;2023-03-23T06:24:20;100900.59;;;10.31;100.00
46718;BME280;32448;44.960;-0.698;2023-03-23T06:26:47;100902.41;;;10.34;100.00
46718;BME280;32448;44.960;-0.698;2023-03-23T06:29:19;100901.53;;;10.33;100.00
46718;BME280;32448;44.960;-0.698;2023-03-23T06:31:55;100906.84;;;10.38;100.00
46718;BME280;32448;44.960;-0.698;2023-03-23T06:34:24;100897.94;;;10.28;100.00
46718;BME280;32448;44.960;-0.698;2023-03-23T06:37:19;100911.19;;;10.37;100.00
46718;BME280;32448;44.960;-0.698;2023-03-23T06:40:18;100911.38;;;10.46;100.00
46718;BME280;32448;44.960;-0.698;2023-03-23T06:42:51;100876.19;;;10.29;100.00
46718;BME280;32448;44.960;-0.698;2023-03-23T06:45:23;100901.66;;;10.41;100.00
46718;BME280;32448;44.960;-0.698;2023-03-23T06:47:57;100931.63;;;10.58;100.00
46718;BME280;32448;44.960;-0.698;2023-03-23T06:50:24;100928.19;;;10.61;100.00
46718;BME280;32448;44.960;-0.698;2023-03-23T06:52:50;100924.75;;;10.63;100.00
46718;BME280;32448;44.960;-0.698;2023-03-23T06:55:18;100923.06;;;10.65;100.00
46718;BME280;32448;44.960;-0.698;2023-03-23T06:57:44;100925.63;;;10.64;100.00
46718;BME280;32448;44.960;-0.698;2023-03-23T07:00:12;100926.66;;;10.70;100.00
46718;BME280;32448;44.960;-0.698;2023-03-23T07:02:40;100932.81;;;10.75;100.00
46718;BME280;32448;44.960;-0.698;2023-03-23T07:05:08;100938.09;;;10.77;100.00
46718;BME280;32448;44.960;-0.698;2023-03-23T07:07:36;100939.78;;;10.75;100.00
46718;BME280;32448;44.960;-0.698;2023-03-23T07:10:19;100941.66;;;10.80;100.00
46718;BME280;32448;44.960;-0.698;2023-03-23T07:12:46;100945.16;;;10.81;100.00
46718;BME280;32448;44.960;-0.698;2023-03-23T07:15:12;100956.56;;;10.86;100.00
46718;BME280;32448;44.960;-0.698;2023-03-23T07:17:41;100963.63;;;10.90;100.00
46718;BME280;32448;44.960;-0.698;2023-03-23T07:20:30;100961.03;;;10.91;100.00
46718;BME280;32448;44.960;-0.698;2023-03-23T07:22:57;100971.66;;;11.01;100.00
46718;BME280;32448;44.960;-0.698;2023-03-23T07:25:38;100966.50;;;11.05;100.00
46718;BME280;32448;44.960;-0.698;2023-03-23T07:28:05;100981.53;;;11.15;100.00
46718;BME280;32448;44.960;-0.698;2023-03-23T07:35:03;100970.75;;;11.48;100.00
46718;BME280;32448;44.960;-0.698;2023-03-23T07:38:06;100971.75;;;11.56;100.00
46718;BME280;32448;44.960;-0.698;2023-03-23T07:40:33;100972.81;;;11.67;100.00
46718;BME280;32448;44.960;-0.698;2023-03-23T07:43:07;100970.34;;;11.77;100.00
46718;BME280;32448;44.960;-0.698;2023-03-23T07:45:51;100978.34;;;11.86;100.00
46718;BME280;32448;44.960;-0.698;2023-03-23T07:48:18;100982.84;;;11.93;100.00
46718;BME280;32448;44.960;-0.698;2023-03-23T07:50:44;100972.38;;;11.96;100.00
46718;BME280;32448;44.960;-0.698;2023-03-23T07:53:12;100978.75;;;12.13;100.00
46718;BME280;32448;44.960;-0.698;2023-03-23T07:55:40;100990.34;;;12.32;100.00
46718;BME280;32448;44.960;-0.698;2023-03-23T07:58:17;100982.53;;;12.35;100.00
46718;BME280;32448;44.960;-0.698;2023-03-23T08:00:47;100979.19;;;12.48;100.00
46718;BME280;32448;44.960;-0.698;2023-03-23T08:03:17;100963.53;;;12.53;100.00
46718;BME280;32448;44.960;-0.698;2023-03-23T08:06:08;100960.19;;;12.64;100.00
46718;BME280;32448;44.960;-0.698;2023-03-23T08:08:44;100966.34;;;12.71;100.00
46718;BME280;32448;44.960;-0.698;2023-03-23T08:11:47;100962.00;;;12.73;100.00
46718;BME280;32448;44.960;-0.698;2023-03-23T08:14:32;100972.59;;;12.82;100.00
46718;BME280;32448;44.960;-0.698;2023-03-23T08:17:16;100977.09;;;12.91;100.00
46718;BME280;32448;44.960;-0.698;2023-03-23T08:20:02;100979.84;;;13.03;100.00
46718;BME280;32448;44.960;-0.698;2023-03-23T08:22:59;100960.56;;;13.01;100.00
46718;BME280;32448;44.960;-0.698;2023-03-23T08:25:50;100967.63;;;13.08;100.00
46718;BME280;32448;44.960;-0.698;2023-03-23T08:28:19;100980.84;;;13.16;100.00
46718;BME280;32448;44.960;-0.698;2023-03-23T08:31:09;100956.28;;;13.09;100.00
46718;BME280;32448;44.960;-0.698;2023-03-23T08:33:57;100972.19;;;13.21;100.00
46718;BME280;32448;44.960;-0.698;2023-03-23T08:36:43;100972.28;;;13.33;100.00
46718;BME280;32448;44.960;-0.698;2023-03-23T08:39:40;100969.66;;;13.33;100.00
46718;BME280;32448;44.960;-0.698;2023-03-23T08:42:39;100975.75;;;13.31;100.00
46718;BME280;32448;44.960;-0.698;2023-03-23T08:45:29;100962.63;;;13.29;100.00
46718;BME280;32448;44.960;-0.698;2023-03-23T08:48:13;100949.44;;;13.23;100.00
46718;BME280;32448;44.960;-0.698;2023-03-23T08:51:09;100972.41;;;13.45;100.00
46718;BME280;32448;44.960;-0.698;2023-03-23T08:54:03;100957.63;;;13.61;100.00
46718;BME280;32448;44.960;-0.698;2023-03-23T08:56:52;100957.00;;;13.97;100.00
46718;BME280;32448;44.960;-0.698;2023-03-23T08:59:23;100948.34;;;14.18;100.00
46718;BME280;32448;44.960;-0.698;2023-03-23T09:02:15;100953.63;;;14.19;100.00
46718;BME280;32448;44.960;-0.698;2023-03-23T09:04:50;100951.03;;;14.23;100.00
46718;BME280;32448;44.960;-0.698;2023-03-23T09:07:43;100962.53;;;14.47;100.00
46718;BME280;32448;44.960;-0.698;2023-03-23T09:10:10;100955.53;;;14.45;100.00
46718;BME280;32448;44.960;-0.698;2023-03-23T09:12:36;100953.78;;;14.45;100.00
46718;BME280;32448;44.960;-0.698;2023-03-23T09:15:06;100959.97;;;14.55;100.00
46718;BME280;32448;44.960;-0.698;2023-03-23T09:17:39;100952.97;;;14.63;100.00
46718;BME280;32448;44.960;-0.698;2023-03-23T09:20:06;100945.09;;;14.75;100.00
46718;BME280;32448;44.960;-0.698;2023-03-23T09:22:38;100924.06;;;14.81;100.00
46718;BME280;32448;44.960;-0.698;2023-03-23T09:25:06;100943.41;;;15.02;100.00
46718;BME280;32448;44.960;-0.698;2023-03-23T09:27:33;100956.56;;;15.14;100.00
46718;BME280;32448;44.960;-0.698;2023-03-23T09:29:59;100943.41;;;15.08;100.00
46718;BME280;32448;44.960;-0.698;2023-03-23T09:32:27;100956.59;;;15.23;100.00
46718;BME280;32448;44.960;-0.698;2023-03-23T09:34:53;100931.13;;;15.16;100.00
46718;BME280;32448;44.960;-0.698;2023-03-23T09:37:22;100938.16;;;15.30;100.00
46718;BME280;32448;44.960;-0.698;2023-03-23T09:39:48;100942.56;;;15.38;100.00
46718;BME280;32448;44.960;-0.698;2023-03-23T09:50:29;100957.50;;;15.61;100.00
46718;BME280;32448;44.960;-0.698;2023-03-23T09:53:03;100951.34;;;15.72;100.00
46718;BME280;32448;44.960;-0.698;2023-03-23T09:55:31;100946.94;;;15.80;100.00
46718;BME280;32448;44.960;-0.698;2023-03-23T10:00:59;100940.75;;;15.97;100.00
46718;BME280;32448;44.960;-0.698;2023-03-23T10:03:32;100939.84;;;16.12;100.00
46718;BME280;32448;44.960;-0.698;2023-03-23T10:06:01;100934.50;;;16.27;100.00
46718;BME280;32448;44.960;-0.698;2023-03-23T10:08:31;100917.69;;;16.54;100.00
46718;BME280;32448;44.960;-0.698;2023-03-23T10:16:42;100891.13;;;16.89;100.00
46718;BME280;32448;44.960;-0.698;2023-03-23T10:19:12;100927.13;;;17.01;100.00
46718;BME280;32448;44.960;-0.698;2023-03-23T10:21:50;100932.44;;;16.96;100.00
46718;BME280;32448;44.960;-0.698;2023-03-23T10:24:34;100925.38;;;16.97;100.00
46718;BME280;32448;44.960;-0.698;2023-03-23T10:27:13;100936.75;;;17.11;100.00
46718;BME280;32448;44.960;-0.698;2023-03-23T10:30:10;100922.66;;;17.09;100.00
46718;BME280;32448;44.960;-0.698;2023-03-23T10:32:51;100889.31;;;16.96;100.00
46718;BME280;32448;44.960;-0.698;2023-03-23T10:35:26;100910.25;;;17.22;100.00
46718;BME280;32448;44.960;-0.698;2023-03-23T10:38:00;100902.25;;;17.29;100.00
46718;BME280;32448;44.960;-0.698;2023-03-23T10:40:29;100873.19;;;17.28;100.00
46718;BME280;32448;44.960;-0.698;2023-03-23T10:42:57;100901.97;;;17.58;100.00
46718;BME280;32448;44.960;-0.698;2023-03-23T10:45:27;100895.88;;;17.55;100.00
46718;BME280;32448;44.960;-0.698;2023-03-23T10:48:05;100898.41;;;17.62;100.00
46718;BME280;32448;44.960;-0.698;2023-03-23T10:50:35;100887.84;;;17.61;100.00
46718;BME280;32448;44.960;-0.698;2023-03-23T10:53:13;100891.41;;;17.63;100.00
46718;BME280;32448;44.960;-0.698;2023-03-23T10:55:43;100908.88;;;17.77;100.00
46718;BME280;32448;44.960;-0.698;2023-03-23T10:58:22;100919.34;;;17.88;100.00
46718;BME280;32448;44.960;-0.698;2023-03-23T11:00:49;100908.69;;;17.96;100.00
46718;BME280;32448;44.960;-0.698;2023-03-23T11:05:50;100871.63;;;17.97;100.00
46718;BME280;32448;44.960;-0.698;2023-03-23T11:08:20;100886.47;;;18.10;100.00
46718;BME280;32448;44.960;-0.698;2023-03-23T11:10:56;100848.66;;;18.01;100.00
46718;BME280;32448;44.960;-0.698;2023-03-23T11:13:30;100871.50;;;18.09;100.00
46718;BME280;32448;44.960;-0.698;2023-03-23T11:15:58;100881.00;;;18.24;100.00
46718;BME280;32448;44.960;-0.698;2023-03-23T11:18:27;100883.63;;;18.26;100.00
46718;BME280;32448;44.960;-0.698;2023-03-23T11:21:00;100870.25;;;18.36;100.00
46718;BME280;32448;44.960;-0.698;2023-03-23T11:28:37;100861.94;;;18.67;100.00
46718;BME280;32448;44.960;-0.698;2023-03-23T11:31:06;100863.56;;;18.74;100.00
46718;BME280;32448;44.960;-0.698;2023-03-23T11:33:37;100853.69;;;18.86;100.00
46718;BME280;32448;44.960;-0.698;2023-03-23T11:36:06;100854.97;;;19.15;100.00
46718;BME280;32448;44.960;-0.698;2023-03-23T11:38:34;100835.50;;;19.17;100.00
46718;BME280;32448;44.960;-0.698;2023-03-23T11:41:01;100825.63;;;19.25;100.00
46718;BME280;32448;44.960;-0.698;2023-03-23T11:43:27;100821.94;;;19.34;100.00
46718;BME280;32448;44.960;-0.698;2023-03-23T11:49:03;100798.03;;;19.37;100.00
46718;BME280;32448;44.960;-0.698;2023-03-23T11:51:49;100796.22;;;19.39;100.00
46718;BME280;32448;44.960;-0.698;2023-03-23T11:54:38;100814.59;;;19.51;100.00
46718;BME280;32448;44.960;-0.698;2023-03-23T11:57:10;100797.66;;;19.57;100.00
46718;BME280;32448;44.960;-0.698;2023-03-23T11:59:39;100803.66;;;19.67;100.00
46718;BME280;32448;44.960;-0.698;2023-03-23T12:08:13;100775.78;;;19.90;100.00
46718;BME280;32448;44.960;-0.698;2023-03-23T12:10:57;100765.97;;;19.94;100.00
46718;BME280;32448;44.960;-0.698;2023-03-23T12:14:00;100767.66;;;19.98;100.00
46718;BME280;32448;44.960;-0.698;2023-03-23T12:19:58;100762.59;;;19.87;100.00
46718;BME280;32448;44.960;-0.698;2023-03-23T12:25:47;100763.63;;;19.79;100.00
46718;BME280;32448;44.960;-0.698;2023-03-23T12:28:29;100761.75;;;19.85;100.00
46718;BME280;32448;44.960;-0.698;2023-03-23T12:34:16;100772.78;;;20.06;100.00
46718;BME280;32448;44.960;-0.698;2023-03-23T12:37:09;100769.75;;;20.22;100.00
46718;BME280;32448;44.960;-0.698;2023-03-23T12:45:13;100770.97;;;20.09;100.00
46718;BME280;32448;44.960;-0.698;2023-03-23T12:47:50;100761.28;;;20.07;100.00
46718;BME280;32448;44.960;-0.698;2023-03-23T12:52:50;100765.09;;;19.93;100.00
46718;BME280;32448;44.960;-0.698;2023-03-23T12:57:50;100741.91;;;20.02;100.00
46718;BME280;32448;44.960;-0.698;2023-03-23T13:00:31;100729.28;;;20.13;100.00
46718;BME280;32448;44.960;-0.698;2023-03-23T13:05:48;100721.97;;;20.22;100.00
46718;BME280;32448;44.960;-0.698;2023-03-23T13:08:34;100715.78;;;20.22;100.00
46718;BME280;32448;44.960;-0.698;2023-03-23T13:11:13;100683.75;;;20.31;100.00
46718;BME280;32448;44.960;-0.698;2023-03-23T13:13:55;100663.00;;;20.47;100.00
46718;BME280;32448;44.960;-0.698;2023-03-23T13:17:01;100651.50;;;20.46;100.00
46718;BME280;32448;44.960;-0.698;2023-03-23T13:19:34;100632.06;;;20.46;100.00
46718;BME280;32448;44.960;-0.698;2023-03-23T13:22:39;100614.44;;;20.43;100.00
46718;BME280;32448;44.960;-0.698;2023-03-23T13:25:36;100612.50;;;20.50;100.00
46718;BME280;32448;44.960;-0.698;2023-03-23T13:28:04;100634.28;;;20.62;100.00
46718;BME280;32448;44.960;-0.698;2023-03-23T13:30:31;100646.16;;;20.82;100.00
46718;BME280;32448;44.960;-0.698;2023-03-23T13:33:12;100640.31;;;21.00;100.00
46718;BME280;32448;44.960;-0.698;2023-03-23T13:35:42;100639.34;;;21.04;100.00
46718;BME280;32448;44.960;-0.698;2023-03-23T13:38:24;100625.78;;;21.13;100.00
46718;BME280;32448;44.960;-0.698;2023-03-23T13:40:52;100630.81;;;21.24;100.00
46718;BME280;32448;44.960;-0.698;2023-03-23T13:43:31;100627.16;;;21.28;100.00
46718;BME280;32448;44.960;-0.698;2023-03-23T13:48:49;100629.28;;;21.15;100.00
46718;BME280;32448;44.960;-0.698;2023-03-23T13:51:36;100626.56;;;21.18;100.00
46718;BME280;32448;44.960;-0.698;2023-03-23T13:56:50;100622.75;;;20.96;100.00
46718;BME280;32448;44.960;-0.698;2023-03-23T14:01:56;100618.03;;;21.05;100.00
46718;BME280;32448;44.960;-0.698;2023-03-23T14:04:30;100622.59;;;21.00;100.00
46718;BME280;32448;44.960;-0.698;2023-03-23T14:07:09;100612.13;;;20.96;100.00
46718;BME280;32448;44.960;-0.698;2023-03-23T14:09:41;100604.41;;;20.87;100.00
46718;BME280;32448;44.960;-0.698;2023-03-23T14:12:25;100592.56;;;20.66;100.00
46718;BME280;32448;44.960;-0.698;2023-03-23T14:14:59;100610.00;;;20.76;100.00
46718;BME280;32448;44.960;-0.698;2023-03-23T14:17:39;100607.50;;;20.70;100.00
46718;BME280;32448;44.960;-0.698;2023-03-23T14:20:06;100592.81;;;20.57;100.00
46718;BME280;32448;44.960;-0.698;2023-03-23T14:22:39;100599.75;;;20.62;100.00
46718;BME280;32448;44.960;-0.698;2023-03-23T14:25:17;100604.94;;;20.67;100.00
46718;BME280;32448;44.960;-0.698;2023-03-23T14:27:44;100601.41;;;20.66;100.00
46718;BME280;32448;44.960;-0.698;2023-03-23T14:30:25;100582.38;;;20.51;100.00
46718;BME280;32448;44.960;-0.698;2023-03-23T14:32:53;100586.88;;;20.47;100.00
46718;BME280;32448;44.960;-0.698;2023-03-23T14:37:53;100584.13;;;20.52;100.00
46718;BME280;32448;44.960;-0.698;2023-03-23T14:40:21;100578.78;;;20.53;100.00
46718;BME280;32448;44.960;-0.698;2023-03-23T14:42:47;100577.72;;;20.59;100.00
46718;BME280;32448;44.960;-0.698;2023-03-23T14:45:20;100574.03;;;20.64;100.00
46718;BME280;32448;44.960;-0.698;2023-03-23T14:48:02;100551.41;;;20.50;100.00
46718;BME280;32448;44.960;-0.698;2023-03-23T14:50:37;100572.47;;;20.56;100.00
46718;BME280;32448;44.960;-0.698;2023-03-23T14:53:21;100564.81;;;20.45;100.00
46718;BME280;32448;44.960;-0.698;2023-03-23T14:55:50;100548.97;;;20.42;100.00
46718;BME280;32448;44.960;-0.698;2023-03-23T14:58:18;100535.28;;;20.23;100.00
46718;BME280;32448;44.960;-0.698;2023-03-23T15:01:09;100558.81;;;20.39;100.00
46718;BME280;32448;44.960;-0.698;2023-03-23T15:03:40;100549.91;;;20.40;100.00
46718;BME280;32448;44.960;-0.698;2023-03-23T15:06:17;100538.50;;;20.34;100.00
46718;BME280;32448;44.960;-0.698;2023-03-23T15:08:45;100546.69;;;20.27;100.00
46718;BME280;32448;44.960;-0.698;2023-03-23T15:13:45;100537.31;;;20.48;100.00
46718;BME280;32448;44.960;-0.698;2023-03-23T15:16:14;100532.88;;;20.48;100.00
46718;BME280;32448;44.960;-0.698;2023-03-23T15:18:50;100523.81;;;20.55;100.00
46718;BME280;32448;44.960;-0.698;2023-03-23T15:21:23;100501.78;;;20.52;100.00